sensor_id;sensor_type;location;lat;lon;timestamp;pressure;altitude;pressure_sealevel;temperature;humidity
6833;BME280;3454;42.654;23.378;2022-07-29T00:01:21;94638.25;;;19.47;100.00
6833;BME280;3454;42.654;23.378;2022-07-29T00:03:47;94648.16;;;19.43;100.00
6833;BME280;3454;42.654;23.378;2022-07-29T00:06:14;94649.75;;;19.44;100.00
6833;BME280;3454;42.654;23.378;2022-07-29T00:08:39;94657.66;;;19.43;100.00
6833;BME280;3454;42.654;23.378;2022-07-29T00:11:04;94671.78;;;19.47;100.00
6833;BME280;3454;42.654;23.378;2022-07-29T00:13:30;94661.31;;;19.34;100.00
6833;BME280;3454;42.654;23.378;2022-07-29T00:15:55;94659.97;;;19.38;100.00
6833;BME280;3454;42.654;23.378;2022-07-29T00:18:21;94664.97;;;19.24;100.00
6833;BME280;3454;42.654;23.378;2022-07-29T00:20:46;94657.41;;;19.23;100.00
6833;BME280;3454;42.654;23.378;2022-07-29T00:23:11;94662.13;;;19.34;100.00
6833;BME280;3454;42.654;23.378;2022-07-29T00:25:37;94671.19;;;19.30;100.00
6833;BME280;3454;42.654;23.378;2022-07-29T00:28:02;94664.72;;;19.34;100.00
6833;BME280;3454;42.654;23.378;2022-07-29T00:30:28;94666.75;;;19.39;100.00
6833;BME280;3454;42.654;23.378;2022-07-29T00:32:53;94663.16;;;19.40;100.00
6833;BME280;3454;42.654;23.378;2022-07-29T00:35:19;94665.63;;;19.48;100.00
6833;BME280;3454;42.654;23.378;2022-07-29T00:38:03;94656.00;;;19.56;100.00
6833;BME280;3454;42.654;23.378;2022-07-29T00:40:28;94657.84;;;19.62;100.00
6833;BME280;3454;42.654;23.378;2022-07-29T00:42:53;94657.41;;;19.59;100.00
6833;BME280;3454;42.654;23.378;2022-07-29T00:45:19;94673.47;;;19.75;100.00
6833;BME280;3454;42.654;23.378;2022-07-29T00:47:45;94672.72;;;19.81;100.00
6833;BME280;3454;42.654;23.378;2022-07-29T00:50:12;94666.06;;;19.72;100.00
6833;BME280;3454;42.654;23.378;2022-07-29T00:52:39;94674.22;;;19.76;100.00
6833;BME280;3454;42.654;23.378;2022-07-29T00:55:07;94666.25;;;19.71;100.00
6833;BME280;3454;42.654;23.378;2022-07-29T00:57:34;94664.53;;;19.78;100.00
6833;BME280;3454;42.654;23.378;2022-07-29T01:00:00;94674.91;;;19.84;100.00
6833;BME280;3454;42.654;23.378;2022-07-29T01:02:25;94676.31;;;19.87;100.00
6833;BME280;3454;42.654;23.378;2022-07-29T01:04:52;94667.72;;;19.80;100.00
6833;BME280;3454;42.654;23.378;2022-07-29T01:07:18;94670.34;;;19.86;100.00
6833;BME280;3454;42.654;23.378;2022-07-29T01:09:50;94665.94;;;20.01;100.00
6833;BME280;3454;42.654;23.378;2022-07-29T01:12:26;94655.56;;;19.95;100.00
6833;BME280;3454;42.654;23.378;2022-07-29T01:14:54;94655.97;;;19.98;100.00
6833;BME280;3454;42.654;23.378;2022-07-29T01:17:25;94654.03;;;19.79;100.00
6833;BME280;3454;42.654;23.378;2022-07-29T01:28:07;94679.44;;;20.25;100.00
6833;BME280;3454;42.654;23.378;2022-07-29T01:30:35;94641.47;;;19.97;100.00
6833;BME280;3454;42.654;23.378;2022-07-29T01:33:07;94640.63;;;19.90;100.00
6833;BME280;3454;42.654;23.378;2022-07-29T01:35:39;94653.81;;;20.02;100.00
6833;BME280;3454;42.654;23.378;2022-07-29T01:38:05;94657.19;;;20.24;100.00
6833;BME280;3454;42.654;23.378;2022-07-29T01:40:38;94648.34;;;20.18;100.00
6833;BME280;3454;42.654;23.378;2022-07-29T01:43:10;94638.00;;;20.12;100.00
6833;BME280;3454;42.654;23.378;2022-07-29T01:45:56;94616.59;;;19.90;100.00
6833;BME280;3454;42.654;23.378;2022-07-29T01:48:27;94628.41;;;19.78;100.00
6833;BME280;3454;42.654;23.378;2022-07-29T01:51:29;94632.75;;;19.98;100.00
6833;BME280;3454;42.654;23.378;2022-07-29T01:54:20;94635.38;;;20.05;100.00
6833;BME280;3454;42.654;23.378;2022-07-29T01:56:49;94632.06;;;19.90;100.00
6833;BME280;3454;42.654;23.378;2022-07-29T01:59:17;94625.78;;;19.71;100.00
6833;BME280;3454;42.654;23.378;2022-07-29T02:01:45;94628.19;;;19.52;100.00
6833;BME280;3454;42.654;23.378;2022-07-29T02:04:12;94616.34;;;19.36;100.00
6833;BME280;3454;42.654;23.378;2022-07-29T02:06:41;94612.19;;;19.35;100.00
6833;BME280;3454;42.654;23.378;2022-07-29T02:09:09;94610.66;;;19.26;100.00
6833;BME280;3454;42.654;23.378;2022-07-29T02:11:37;94611.75;;;19.17;100.00
6833;BME280;3454;42.654;23.378;2022-07-29T02:14:04;94607.09;;;19.27;100.00
6833;BME280;3454;42.654;23.378;2022-07-29T02:16:32;94622.31;;;19.22;100.00
6833;BME280;3454;42.654;23.378;2022-07-29T02:18:59;94616.34;;;19.36;100.00
6833;BME280;3454;42.654;23.378;2022-07-29T02:21:26;94614.47;;;19.30;100.00
6833;BME280;3454;42.654;23.378;2022-07-29T02:23:54;94616.22;;;19.29;100.00
6833;BME280;3454;42.654;23.378;2022-07-29T02:26:23;94625.50;;;19.39;100.00
6833;BME280;3454;42.654;23.378;2022-07-29T02:28:51;94618.63;;;19.31;100.00
6833;BME280;3454;42.654;23.378;2022-07-29T02:31:28;94623.47;;;19.34;100.00
6833;BME280;3454;42.654;23.378;2022-07-29T02:33:54;94619.66;;;19.15;100.00
6833;BME280;3454;42.654;23.378;2022-07-29T02:36:22;94613.66;;;19.08;100.00
6833;BME280;3454;42.654;23.378;2022-07-29T02:38:48;94609.03;;;19.04;100.00
6833;BME280;3454;42.654;23.378;2022-07-29T02:41:18;94601.81;;;19.14;100.00
6833;BME280;3454;42.654;23.378;2022-07-29T02:43:47;94597.38;;;19.08;100.00
6833;BME280;3454;42.654;23.378;2022-07-29T02:46:17;94596.84;;;19.12;100.00
6833;BME280;3454;42.654;23.378;2022-07-29T02:49:01;94597.38;;;19.08;100.00
6833;BME280;3454;42.654;23.378;2022-07-29T02:51:33;94582.78;;;18.94;100.00
6833;BME280;3454;42.654;23.378;2022-07-29T02:54:04;94591.84;;;18.90;100.00
6833;BME280;3454;42.654;23.378;2022-07-29T02:56:33;94596.50;;;19.01;100.00
6833;BME280;3454;42.654;23.378;2022-07-29T02:59:05;94593.31;;;18.99;100.00
6833;BME280;3454;42.654;23.378;2022-07-29T03:01:34;94600.88;;;19.00;100.00
6833;BME280;3454;42.654;23.378;2022-07-29T03:04:03;94605.56;;;18.97;100.00
6833;BME280;3454;42.654;23.378;2022-07-29T03:06:30;94603.28;;;19.02;100.00
6833;BME280;3454;42.654;23.378;2022-07-29T03:08:58;94601.53;;;19.09;100.00
6833;BME280;3454;42.654;23.378;2022-07-29T03:11:25;94597.94;;;19.03;100.00
6833;BME280;3454;42.654;23.378;2022-07-29T03:13:50;94595.00;;;19.06;100.00
6833;BME280;3454;42.654;23.378;2022-07-29T03:16:18;94589.13;;;19.12;100.00
6833;BME280;3454;42.654;23.378;2022-07-29T03:18:44;94600.03;;;19.14;100.00
6833;BME280;3454;42.654;23.378;2022-07-29T03:21:10;94603.97;;;19.32;100.00
6833;BME280;3454;42.654;23.378;2022-07-29T03:23:35;94596.88;;;19.19;100.00
6833;BME280;3454;42.654;23.378;2022-07-29T03:26:01;94605.44;;;19.19;100.00
6833;BME280;3454;42.654;23.378;2022-07-29T03:28:26;94592.13;;;19.16;100.00
6833;BME280;3454;42.654;23.378;2022-07-29T03:30:53;94601.81;;;19.14;100.00
6833;BME280;3454;42.654;23.378;2022-07-29T03:33:18;94603.09;;;19.03;100.00
6833;BME280;3454;42.654;23.378;2022-07-29T03:35:44;94599.16;;;19.07;100.00
6833;BME280;3454;42.654;23.378;2022-07-29T03:38:10;94595.31;;;19.18;100.00
6833;BME280;3454;42.654;23.378;2022-07-29T03:40:45;94596.47;;;19.15;100.00
6833;BME280;3454;42.654;23.378;2022-07-29T03:43:13;94608.03;;;19.05;100.00
6833;BME280;3454;42.654;23.378;2022-07-29T03:45:42;94607.31;;;19.11;100.00
6833;BME280;3454;42.654;23.378;2022-07-29T03:48:12;94610.78;;;19.18;100.00
6833;BME280;3454;42.654;23.378;2022-07-29T03:50:40;94614.31;;;19.17;100.00
6833;BME280;3454;42.654;23.378;2022-07-29T03:53:05;94618.25;;;19.13;100.00
6833;BME280;3454;42.654;23.378;2022-07-29T03:55:36;94616.16;;;19.02;100.00
6833;BME280;3454;42.654;23.378;2022-07-29T03:58:03;94622.34;;;19.07;100.00
6833;BME280;3454;42.654;23.378;2022-07-29T04:00:29;94622.66;;;19.19;100.00
6833;BME280;3454;42.654;23.378;2022-07-29T04:02:56;94621.25;;;19.52;100.00
6833;BME280;3454;42.654;23.378;2022-07-29T04:05:22;94616.31;;;19.78;100.00
6833;BME280;3454;42.654;23.378;2022-07-29T04:07:48;94635.78;;;20.08;100.00
6833;BME280;3454;42.654;23.378;2022-07-29T04:10:14;94633.19;;;20.30;100.00
6833;BME280;3454;42.654;23.378;2022-07-29T04:12:44;94643.84;;;20.48;100.00
6833;BME280;3454;42.654;23.378;2022-07-29T04:15:10;94646.50;;;20.67;100.00
6833;BME280;3454;42.654;23.378;2022-07-29T04:17:36;94657.13;;;20.85;100.00
6833;BME280;3454;42.654;23.378;2022-07-29T04:20:02;94687.41;;;20.98;100.00
6833;BME280;3454;42.654;23.378;2022-07-29T04:22:28;94641.69;;;20.99;100.00
6833;BME280;3454;42.654;23.378;2022-07-29T04:24:54;94660.66;;;21.12;100.00
6833;BME280;3454;42.654;23.378;2022-07-29T04:27:19;94697.06;;;21.17;100.00
6833;BME280;3454;42.654;23.378;2022-07-29T04:29:44;94667.34;;;21.00;100.00
6833;BME280;3454;42.654;23.378;2022-07-29T04:32:10;94667.47;;;20.85;100.00
6833;BME280;3454;42.654;23.378;2022-07-29T04:34:35;94627.00;;;20.65;100.00
6833;BME280;3454;42.654;23.378;2022-07-29T04:37:00;94641.91;;;20.63;100.00
6833;BME280;3454;42.654;23.378;2022-07-29T04:39:26;94663.84;;;20.73;100.00
6833;BME280;3454;42.654;23.378;2022-07-29T04:41:51;94677.66;;;20.59;100.00
6833;BME280;3454;42.654;23.378;2022-07-29T04:44:17;94651.53;;;20.41;100.00
6833;BME280;3454;42.654;23.378;2022-07-29T04:46:42;94641.19;;;20.41;100.00
6833;BME280;3454;42.654;23.378;2022-07-29T04:49:08;94631.53;;;20.50;100.00
6833;BME280;3454;42.654;23.378;2022-07-29T04:51:34;94620.72;;;20.74;100.00
6833;BME280;3454;42.654;23.378;2022-07-29T04:54:00;94657.03;;;20.66;100.00
6833;BME280;3454;42.654;23.378;2022-07-29T04:56:25;94643.16;;;20.73;100.00
6833;BME280;3454;42.654;23.378;2022-07-29T04:58:51;94643.63;;;20.90;100.00
6833;BME280;3454;42.654;23.378;2022-07-29T05:01:17;94705.13;;;21.01;100.00
6833;BME280;3454;42.654;23.378;2022-07-29T05:03:42;94699.75;;;20.96;100.00
6833;BME280;3454;42.654;23.378;2022-07-29T05:06:07;94663.91;;;20.93;100.00
6833;BME280;3454;42.654;23.378;2022-07-29T05:08:33;94660.03;;;21.04;100.00
6833;BME280;3454;42.654;23.378;2022-07-29T05:10:58;94704.97;;;21.09;100.00
6833;BME280;3454;42.654;23.378;2022-07-29T05:13:24;94673.97;;;21.09;100.00
6833;BME280;3454;42.654;23.378;2022-07-29T05:15:49;94727.47;;;21.15;100.00
6833;BME280;3454;42.654;23.378;2022-07-29T05:18:15;94658.66;;;21.08;100.00
6833;BME280;3454;42.654;23.378;2022-07-29T05:20:41;94701.38;;;21.04;100.00
6833;BME280;3454;42.654;23.378;2022-07-29T05:23:06;94706.03;;;21.15;100.00
6833;BME280;3454;42.654;23.378;2022-07-29T05:25:32;94686.69;;;21.04;100.00
6833;BME280;3454;42.654;23.378;2022-07-29T05:27:57;94708.41;;;21.16;100.00
6833;BME280;3454;42.654;23.378;2022-07-29T05:30:23;94693.88;;;21.09;100.00
6833;BME280;3454;42.654;23.378;2022-07-29T05:32:49;94680.63;;;20.97;100.00
6833;BME280;3454;42.654;23.378;2022-07-29T05:35:14;94672.28;;;20.95;100.00
6833;BME280;3454;42.654;23.378;2022-07-29T05:37:41;94679.13;;;21.09;100.00
6833;BME280;3454;42.654;23.378;2022-07-29T05:40:07;94687.91;;;21.21;100.00
6833;BME280;3454;42.654;23.378;2022-07-29T05:42:33;94711.09;;;21.42;100.00
6833;BME280;3454;42.654;23.378;2022-07-29T05:44:59;94720.25;;;21.51;100.00
6833;BME280;3454;42.654;23.378;2022-07-29T05:47:25;94731.63;;;21.57;100.00
6833;BME280;3454;42.654;23.378;2022-07-29T05:49:51;94743.94;;;21.48;100.00
6833;BME280;3454;42.654;23.378;2022-07-29T05:52:16;94645.03;;;21.53;100.00
6833;BME280;3454;42.654;23.378;2022-07-29T05:54:42;94647.47;;;21.81;100.00
6833;BME280;3454;42.654;23.378;2022-07-29T05:57:07;94736.91;;;21.96;100.00
6833;BME280;3454;42.654;23.378;2022-07-29T05:59:36;94762.66;;;22.24;100.00
6833;BME280;3454;42.654;23.378;2022-07-29T06:02:03;94729.19;;;22.35;100.00
6833;BME280;3454;42.654;23.378;2022-07-29T06:04:30;94762.25;;;22.46;100.00
6833;BME280;3454;42.654;23.378;2022-07-29T06:06:56;94747.34;;;22.62;100.00
6833;BME280;3454;42.654;23.378;2022-07-29T06:09:21;94776.22;;;22.91;100.00
6833;BME280;3454;42.654;23.378;2022-07-29T06:11:47;94784.75;;;23.11;100.00
6833;BME280;3454;42.654;23.378;2022-07-29T06:14:13;94776.34;;;23.29;100.00
6833;BME280;3454;42.654;23.378;2022-07-29T06:16:39;94812.47;;;23.37;100.00
6833;BME280;3454;42.654;23.378;2022-07-29T06:19:04;94786.91;;;23.41;100.00
6833;BME280;3454;42.654;23.378;2022-07-29T06:21:30;94786.28;;;23.45;100.00
6833;BME280;3454;42.654;23.378;2022-07-29T06:23:55;94792.84;;;23.54;100.00
6833;BME280;3454;42.654;23.378;2022-07-29T06:26:20;94785.44;;;23.58;100.00
6833;BME280;3454;42.654;23.378;2022-07-29T06:28:46;94802.00;;;23.63;100.00
6833;BME280;3454;42.654;23.378;2022-07-29T06:31:11;94813.16;;;23.64;100.00
6833;BME280;3454;42.654;23.378;2022-07-29T06:33:37;94767.69;;;23.55;100.00
6833;BME280;3454;42.654;23.378;2022-07-29T06:36:04;94764.47;;;23.59;100.00
6833;BME280;3454;42.654;23.378;2022-07-29T06:38:30;94786.81;;;23.67;100.00
6833;BME280;3454;42.654;23.378;2022-07-29T06:40:56;94775.72;;;23.40;100.00
6833;BME280;3454;42.654;23.378;2022-07-29T06:46:08;94751.38;;;23.34;100.00
6833;BME280;3454;42.654;23.378;2022-07-29T06:48:34;94752.56;;;23.45;100.00
6833;BME280;3454;42.654;23.378;2022-07-29T06:51:02;94756.50;;;23.48;100.00
6833;BME280;3454;42.654;23.378;2022-07-29T06:53:28;94742.94;;;23.52;100.00
6833;BME280;3454;42.654;23.378;2022-07-29T06:55:53;94751.66;;;23.64;100.00
6833;BME280;3454;42.654;23.378;2022-07-29T06:58:19;94750.78;;;23.77;100.00
6833;BME280;3454;42.654;23.378;2022-07-29T07:00:47;94798.59;;;24.00;100.00
6833;BME280;3454;42.654;23.378;2022-07-29T07:03:13;94773.44;;;24.01;100.00
6833;BME280;3454;42.654;23.378;2022-07-29T07:05:39;94822.59;;;23.96;100.00
6833;BME280;3454;42.654;23.378;2022-07-29T07:08:04;94786.44;;;24.07;100.00
6833;BME280;3454;42.654;23.378;2022-07-29T07:10:30;94822.38;;;24.10;100.00
6833;BME280;3454;42.654;23.378;2022-07-29T07:12:56;94840.28;;;24.25;100.00
6833;BME280;3454;42.654;23.378;2022-07-29T07:15:21;94822.31;;;24.24;100.00
6833;BME280;3454;42.654;23.378;2022-07-29T07:17:49;94800.13;;;24.21;100.00
6833;BME280;3454;42.654;23.378;2022-07-29T07:20:18;94813.69;;;24.23;100.00
6833;BME280;3454;42.654;23.378;2022-07-29T07:22:44;94849.81;;;24.38;100.00
6833;BME280;3454;42.654;23.378;2022-07-29T07:25:10;94829.44;;;24.28;100.00
6833;BME280;3454;42.654;23.378;2022-07-29T07:27:36;94836.00;;;24.37;100.00
6833;BME280;3454;42.654;23.378;2022-07-29T07:30:03;94853.91;;;24.52;99.12
6833;BME280;3454;42.654;23.378;2022-07-29T07:32:31;94854.72;;;24.52;98.03
6833;BME280;3454;42.654;23.378;2022-07-29T07:34:56;94830.63;;;24.63;99.63
6833;BME280;3454;42.654;23.378;2022-07-29T07:37:21;94806.38;;;24.69;100.00
6833;BME280;3454;42.654;23.378;2022-07-29T07:39:47;94818.16;;;24.78;99.48
6833;BME280;3454;42.654;23.378;2022-07-29T07:42:13;94834.47;;;24.85;98.53
6833;BME280;3454;42.654;23.378;2022-07-29T07:44:39;94847.13;;;24.82;97.71
6833;BME280;3454;42.654;23.378;2022-07-29T07:47:05;94844.06;;;25.10;97.33
6833;BME280;3454;42.654;23.378;2022-07-29T07:49:30;94863.63;;;25.19;96.43
6833;BME280;3454;42.654;23.378;2022-07-29T07:51:56;94872.59;;;25.23;95.42
6833;BME280;3454;42.654;23.378;2022-07-29T07:54:21;94872.03;;;25.39;94.55
6833;BME280;3454;42.654;23.378;2022-07-29T07:56:47;94880.69;;;25.57;94.39
6833;BME280;3454;42.654;23.378;2022-07-29T07:59:16;94911.28;;;25.62;92.72
6833;BME280;3454;42.654;23.378;2022-07-29T08:01:42;94939.81;;;25.57;90.55
6833;BME280;3454;42.654;23.378;2022-07-29T08:04:07;94942.56;;;25.80;89.53
6833;BME280;3454;42.654;23.378;2022-07-29T08:06:33;94917.38;;;25.92;90.56
6833;BME280;3454;42.654;23.378;2022-07-29T08:09:00;94947.50;;;26.06;87.93
6833;BME280;3454;42.654;23.378;2022-07-29T08:11:25;94942.69;;;26.10;86.09
6833;BME280;3454;42.654;23.378;2022-07-29T08:13:51;94920.59;;;26.12;86.66
6833;BME280;3454;42.654;23.378;2022-07-29T08:16:17;94901.97;;;26.27;87.61
6833;BME280;3454;42.654;23.378;2022-07-29T08:18:44;94947.06;;;26.45;84.86
6833;BME280;3454;42.654;23.378;2022-07-29T08:21:11;94952.84;;;26.47;81.35
6833;BME280;3454;42.654;23.378;2022-07-29T08:23:37;94938.13;;;26.53;74.91
6833;BME280;3454;42.654;23.378;2022-07-29T08:26:11;94907.63;;;26.53;74.19
6833;BME280;3454;42.654;23.378;2022-07-29T08:28:38;94955.72;;;26.76;71.81
6833;BME280;3454;42.654;23.378;2022-07-29T08:31:03;94934.06;;;26.87;71.66
6833;BME280;3454;42.654;23.378;2022-07-29T08:33:29;94993.22;;;26.93;68.54
6833;BME280;3454;42.654;23.378;2022-07-29T08:35:54;94968.31;;;27.08;69.18
6833;BME280;3454;42.654;23.378;2022-07-29T08:38:20;94973.97;;;27.05;68.41
6833;BME280;3454;42.654;23.378;2022-07-29T08:40:46;94989.78;;;27.22;66.93
6833;BME280;3454;42.654;23.378;2022-07-29T08:43:11;95051.84;;;27.38;63.38
6833;BME280;3454;42.654;23.378;2022-07-29T08:45:48;95031.56;;;27.52;63.78
6833;BME280;3454;42.654;23.378;2022-07-29T08:48:16;95003.03;;;27.50;63.92
6833;BME280;3454;42.654;23.378;2022-07-29T08:50:43;95049.31;;;27.73;62.47
6833;BME280;3454;42.654;23.378;2022-07-29T08:53:13;95029.22;;;27.73;62.31
6833;BME280;3454;42.654;23.378;2022-07-29T08:55:43;95039.19;;;27.76;61.33
6833;BME280;3454;42.654;23.378;2022-07-29T08:58:09;94957.03;;;27.84;64.56
6833;BME280;3454;42.654;23.378;2022-07-29T09:00:37;95015.16;;;27.97;61.43
6833;BME280;3454;42.654;23.378;2022-07-29T09:03:06;95010.59;;;28.04;60.40
6833;BME280;3454;42.654;23.378;2022-07-29T09:05:33;95039.13;;;28.17;59.37
6833;BME280;3454;42.654;23.378;2022-07-29T09:07:59;95012.34;;;28.39;59.58
6833;BME280;3454;42.654;23.378;2022-07-29T09:10:25;95060.59;;;28.43;57.91
6833;BME280;3454;42.654;23.378;2022-07-29T09:12:51;95090.63;;;28.40;55.70
6833;BME280;3454;42.654;23.378;2022-07-29T09:15:17;95051.25;;;28.70;56.79
6833;BME280;3454;42.654;23.378;2022-07-29T09:17:49;94998.50;;;28.38;58.74
6833;BME280;3454;42.654;23.378;2022-07-29T09:20:17;94994.66;;;28.17;59.23
6833;BME280;3454;42.654;23.378;2022-07-29T09:22:43;94967.19;;;28.03;59.98
6833;BME280;3454;42.654;23.378;2022-07-29T09:25:11;94986.69;;;27.78;59.28
6833;BME280;3454;42.654;23.378;2022-07-29T09:27:37;94956.72;;;27.69;60.39
6833;BME280;3454;42.654;23.378;2022-07-29T09:32:54;94961.34;;;27.43;59.87
6833;BME280;3454;42.654;23.378;2022-07-29T09:35:27;94913.25;;;27.21;61.28
6833;BME280;3454;42.654;23.378;2022-07-29T09:37:54;94890.91;;;27.25;62.81
6833;BME280;3454;42.654;23.378;2022-07-29T09:40:21;94875.16;;;27.55;62.94
6833;BME280;3454;42.654;23.378;2022-07-29T09:42:48;94861.28;;;28.17;64.17
6833;BME280;3454;42.654;23.378;2022-07-29T09:45:27;95013.19;;;28.79;58.25
6833;BME280;3454;42.654;23.378;2022-07-29T09:47:53;95012.56;;;29.28;58.02
6833;BME280;3454;42.654;23.378;2022-07-29T09:50:20;95060.31;;;29.63;55.90
6833;BME280;3454;42.654;23.378;2022-07-29T09:52:52;95038.34;;;29.98;55.97
6833;BME280;3454;42.654;23.378;2022-07-29T09:55:19;95112.63;;;30.36;53.42
6833;BME280;3454;42.654;23.378;2022-07-29T09:57:46;95113.91;;;30.17;51.95
6833;BME280;3454;42.654;23.378;2022-07-29T10:00:12;95104.16;;;30.29;52.07
6833;BME280;3454;42.654;23.378;2022-07-29T10:02:41;95031.22;;;30.31;54.42
6833;BME280;3454;42.654;23.378;2022-07-29T10:07:55;95115.44;;;30.30;50.54
6833;BME280;3454;42.654;23.378;2022-07-29T10:15:30;95089.47;;;31.10;50.12
6833;BME280;3454;42.654;23.378;2022-07-29T10:17:58;95075.22;;;31.06;50.08
6833;BME280;3454;42.654;23.378;2022-07-29T10:20:26;95020.69;;;30.48;51.81
6833;BME280;3454;42.654;23.378;2022-07-29T10:22:52;94969.44;;;30.24;53.13
6833;BME280;3454;42.654;23.378;2022-07-29T10:25:18;94916.63;;;29.77;55.17
6833;BME280;3454;42.654;23.378;2022-07-29T10:27:45;94964.06;;;30.14;53.48
6833;BME280;3454;42.654;23.378;2022-07-29T10:30:12;94995.81;;;30.77;52.24
6833;BME280;3454;42.654;23.378;2022-07-29T10:35:45;95099.91;;;31.26;46.69
6833;BME280;3454;42.654;23.378;2022-07-29T10:40:57;94985.00;;;32.27;49.32
6833;BME280;3454;42.654;23.378;2022-07-29T10:43:46;95054.69;;;32.61;46.70
6833;BME280;3454;42.654;23.378;2022-07-29T10:46:12;95022.63;;;32.79;45.55
6833;BME280;3454;42.654;23.378;2022-07-29T10:54:44;94977.97;;;33.15;43.65
6833;BME280;3454;42.654;23.378;2022-07-29T10:57:27;95046.50;;;33.20;40.95
6833;BME280;3454;42.654;23.378;2022-07-29T11:07:32;94982.72;;;33.83;41.94
6833;BME280;3454;42.654;23.378;2022-07-29T11:15:12;95005.88;;;34.26;39.74
6833;BME280;3454;42.654;23.378;2022-07-29T11:20:43;94995.94;;;34.77;38.60
6833;BME280;3454;42.654;23.378;2022-07-29T11:23:33;95022.38;;;34.77;37.28
6833;BME280;3454;42.654;23.378;2022-07-29T11:31:38;94978.72;;;34.26;38.35
6833;BME280;3454;42.654;23.378;2022-07-29T11:39:42;94959.63;;;34.54;38.67
6833;BME280;3454;42.654;23.378;2022-07-29T11:45:12;94958.84;;;34.38;37.95
6833;BME280;3454;42.654;23.378;2022-07-29T11:50:27;94955.50;;;34.82;37.33
6833;BME280;3454;42.654;23.378;2022-07-29T11:52:53;95016.22;;;35.02;34.81
6833;BME280;3454;42.654;23.378;2022-07-29T11:55:20;94963.13;;;34.24;36.51
6833;BME280;3454;42.654;23.378;2022-07-29T11:57:52;94935.97;;;34.78;37.65
6833;BME280;3454;42.654;23.378;2022-07-29T12:00:41;95004.78;;;35.11;35.18
6833;BME280;3454;42.654;23.378;2022-07-29T12:03:09;95009.97;;;34.78;34.90
6833;BME280;3454;42.654;23.378;2022-07-29T12:05:44;94990.06;;;34.21;35.15
6833;BME280;3454;42.654;23.378;2022-07-29T12:08:18;94987.72;;;34.20;34.82
6833;BME280;3454;42.654;23.378;2022-07-29T12:10:46;94966.91;;;33.58;35.80
6833;BME280;3454;42.654;23.378;2022-07-29T12:13:13;94969.25;;;34.10;34.94
6833;BME280;3454;42.654;23.378;2022-07-29T12:15:40;94929.81;;;34.33;36.41
6833;BME280;3454;42.654;23.378;2022-07-29T12:18:17;94966.19;;;34.56;35.38
6833;BME280;3454;42.654;23.378;2022-07-29T12:20:44;94936.81;;;33.89;35.51
6833;BME280;3454;42.654;23.378;2022-07-29T12:23:10;94910.22;;;34.49;36.59
6833;BME280;3454;42.654;23.378;2022-07-29T12:25:38;94936.50;;;34.75;36.64
6833;BME280;3454;42.654;23.378;2022-07-29T12:28:06;94961.72;;;35.06;35.24
6833;BME280;3454;42.654;23.378;2022-07-29T12:30:47;95010.75;;;35.32;33.44
6833;BME280;3454;42.654;23.378;2022-07-29T12:33:21;94988.88;;;34.67;33.38
6833;BME280;3454;42.654;23.378;2022-07-29T12:35:50;94993.97;;;34.54;33.54
6833;BME280;3454;42.654;23.378;2022-07-29T12:38:17;94939.78;;;34.46;34.11
6833;BME280;3454;42.654;23.378;2022-07-29T12:40:44;94951.47;;;34.35;34.02
6833;BME280;3454;42.654;23.378;2022-07-29T12:43:20;94919.13;;;34.63;34.79
6833;BME280;3454;42.654;23.378;2022-07-29T12:45:56;94933.91;;;34.70;34.18
6833;BME280;3454;42.654;23.378;2022-07-29T12:51:01;94968.31;;;34.59;32.89
6833;BME280;3454;42.654;23.378;2022-07-29T12:53:27;94920.97;;;34.68;33.96
6833;BME280;3454;42.654;23.378;2022-07-29T12:55:55;94935.16;;;34.82;33.90
6833;BME280;3454;42.654;23.378;2022-07-29T12:58:30;94887.75;;;34.96;35.30
6833;BME280;3454;42.654;23.378;2022-07-29T13:01:22;94869.72;;;35.36;35.73
6833;BME280;3454;42.654;23.378;2022-07-29T13:03:54;94933.16;;;35.47;32.66
6833;BME280;3454;42.654;23.378;2022-07-29T13:09:14;94873.47;;;36.11;34.73
6833;BME280;3454;42.654;23.378;2022-07-29T13:11:52;94929.72;;;36.03;33.19
6833;BME280;3454;42.654;23.378;2022-07-29T13:14:31;94932.88;;;35.43;32.07
6833;BME280;3454;42.654;23.378;2022-07-29T13:17:14;94936.84;;;35.45;31.98
6833;BME280;3454;42.654;23.378;2022-07-29T13:19:47;94891.88;;;35.12;33.09
6833;BME280;3454;42.654;23.378;2022-07-29T13:22:22;94882.16;;;35.36;33.85
6833;BME280;3454;42.654;23.378;2022-07-29T13:24:59;94879.81;;;35.29;33.34
6833;BME280;3454;42.654;23.378;2022-07-29T13:27:29;94894.25;;;35.42;33.15
6833;BME280;3454;42.654;23.378;2022-07-29T13:29:56;94878.44;;;35.66;33.14
6833;BME280;3454;42.654;23.378;2022-07-29T13:32:23;94890.69;;;35.85;33.22
6833;BME280;3454;42.654;23.378;2022-07-29T13:34:49;94876.47;;;35.53;33.25
6833;BME280;3454;42.654;23.378;2022-07-29T13:37:15;94877.59;;;35.41;32.98
6833;BME280;3454;42.654;23.378;2022-07-29T13:39:42;94866.75;;;34.71;33.23
6833;BME280;3454;42.654;23.378;2022-07-29T13:42:08;94825.16;;;34.42;34.23
6833;BME280;3454;42.654;23.378;2022-07-29T13:44:34;94815.13;;;34.83;34.54
6833;BME280;3454;42.654;23.378;2022-07-29T13:47:00;94883.53;;;34.95;32.65
6833;BME280;3454;42.654;23.378;2022-07-29T13:49:26;94855.75;;;34.97;33.13
6833;BME280;3454;42.654;23.378;2022-07-29T13:51:52;94849.19;;;34.51;33.05
6833;BME280;3454;42.654;23.378;2022-07-29T13:54:18;94830.03;;;34.20;33.53
6833;BME280;3454;42.654;23.378;2022-07-29T13:56:44;94836.81;;;34.41;33.71
6833;BME280;3454;42.654;23.378;2022-07-29T13:59:10;94842.47;;;34.68;33.17
6833;BME280;3454;42.654;23.378;2022-07-29T14:01:35;94848.97;;;34.86;32.96
6833;BME280;3454;42.654;23.378;2022-07-29T14:04:02;94863.44;;;34.99;33.15
6833;BME280;3454;42.654;23.378;2022-07-29T14:06:27;94844.22;;;34.83;33.21
6833;BME280;3454;42.654;23.378;2022-07-29T14:08:53;94842.16;;;34.31;33.78
6833;BME280;3454;42.654;23.378;2022-07-29T14:11:18;94841.16;;;34.17;33.49
6833;BME280;3454;42.654;23.378;2022-07-29T14:13:44;94834.78;;;34.23;33.93
6833;BME280;3454;42.654;23.378;2022-07-29T14:16:09;94813.28;;;33.91;34.52
6833;BME280;3454;42.654;23.378;2022-07-29T14:18:35;94812.53;;;33.85;34.62
6833;BME280;3454;42.654;23.378;2022-07-29T14:21:00;94824.34;;;34.03;33.93